FCBB/BZV METAR and TAF weather

Enter ICAO airport designator
Station Type Date Time Source
FCBB METAR 2020/09/25 20:00 UTC NOAA

FCBB 252000Z 25003KT 7000 NSC 25/20 Q1014 NOSIG


Station Type Date Time Source
FCBB Decoded METAR 2020/09/25 20:00 UTC NOAA

Brazzaville / Maya-Maya, Congo, Republic of the (FCBB) 04-15S 015-15E 316M
Sep 25, 2020 - 04:00 PM EDT / 2020.09.25 2000 UTC
Wind: from the WSW (250 degrees) at 3 MPH (3 KT):0
Visibility: 4 mile(s):0
Temperature: 77 F (25 C)
Dew Point: 68 F (20 C)
Relative Humidity: 73%
Pressure (altimeter): 29.94 in. Hg (1014 hPa)
ob: FCBB 252000Z 25003KT 7000 NSC 25/20 Q1014 NOSIG
cycle: 20

Station Type Date Time Source
FCBB TAF 2020/09/25 18:33 UTC NOAA

TAF TAF FCBB 251700Z 2518/2624 24004KT 7000 FEW016 PROB30 2604/2607 4000 BR BKN014

Example: see airport list